sensor_id;sensor_type;location;lat;lon;timestamp;temperature;humidity
6379;DHT22;3222;48.858;10.128;2023-11-19T00:02:12;6.40;99.90
6379;DHT22;3222;48.858;10.128;2023-11-19T00:04:38;6.40;99.90
6379;DHT22;3222;48.858;10.128;2023-11-19T00:07:07;6.40;99.90
6379;DHT22;3222;48.858;10.128;2023-11-19T00:09:33;6.50;99.90
6379;DHT22;3222;48.858;10.128;2023-11-19T00:12:00;6.40;99.90
6379;DHT22;3222;48.858;10.128;2023-11-19T00:14:26;6.40;99.90
6379;DHT22;3222;48.858;10.128;2023-11-19T00:16:52;6.40;99.90
6379;DHT22;3222;48.858;10.128;2023-11-19T00:19:19;6.50;99.90
6379;DHT22;3222;48.858;10.128;2023-11-19T00:21:45;6.40;99.90
6379;DHT22;3222;48.858;10.128;2023-11-19T00:24:11;6.50;99.90
6379;DHT22;3222;48.858;10.128;2023-11-19T00:26:40;6.50;99.90
6379;DHT22;3222;48.858;10.128;2023-11-19T00:29:07;6.60;99.90
6379;DHT22;3222;48.858;10.128;2023-11-19T00:31:33;6.60;99.90
6379;DHT22;3222;48.858;10.128;2023-11-19T00:33:58;6.60;99.90
6379;DHT22;3222;48.858;10.128;2023-11-19T00:36:24;6.60;99.90
6379;DHT22;3222;48.858;10.128;2023-11-19T00:38:51;6.60;99.90
6379;DHT22;3222;48.858;10.128;2023-11-19T00:41:18;6.50;99.90
6379;DHT22;3222;48.858;10.128;2023-11-19T00:43:44;6.70;99.90
6379;DHT22;3222;48.858;10.128;2023-11-19T00:46:10;6.70;99.90
6379;DHT22;3222;48.858;10.128;2023-11-19T00:48:41;6.70;99.90
6379;DHT22;3222;48.858;10.128;2023-11-19T00:51:07;6.70;99.90
6379;DHT22;3222;48.858;10.128;2023-11-19T00:53:33;6.80;99.90
6379;DHT22;3222;48.858;10.128;2023-11-19T00:56:02;6.80;99.90
6379;DHT22;3222;48.858;10.128;2023-11-19T00:58:27;6.80;99.90
6379;DHT22;3222;48.858;10.128;2023-11-19T01:00:53;6.70;99.90
6379;DHT22;3222;48.858;10.128;2023-11-19T01:03:19;6.70;99.90
6379;DHT22;3222;48.858;10.128;2023-11-19T01:05:45;6.70;99.90
6379;DHT22;3222;48.858;10.128;2023-11-19T01:08:12;6.70;99.90
6379;DHT22;3222;48.858;10.128;2023-11-19T01:10:38;6.70;99.90
6379;DHT22;3222;48.858;10.128;2023-11-19T01:13:04;6.70;99.90
6379;DHT22;3222;48.858;10.128;2023-11-19T01:15:33;6.80;99.90
6379;DHT22;3222;48.858;10.128;2023-11-19T01:17:59;6.80;99.90
6379;DHT22;3222;48.858;10.128;2023-11-19T01:20:24;6.80;99.90
6379;DHT22;3222;48.858;10.128;2023-11-19T01:22:52;6.80;99.90
6379;DHT22;3222;48.858;10.128;2023-11-19T01:25:17;6.80;99.90
6379;DHT22;3222;48.858;10.128;2023-11-19T01:27:44;6.90;99.90
6379;DHT22;3222;48.858;10.128;2023-11-19T01:30:10;6.90;99.90
6379;DHT22;3222;48.858;10.128;2023-11-19T01:32:39;6.90;99.90
6379;DHT22;3222;48.858;10.128;2023-11-19T01:35:05;6.90;99.90
6379;DHT22;3222;48.858;10.128;2023-11-19T01:37:31;6.90;99.90
6379;DHT22;3222;48.858;10.128;2023-11-19T01:39:58;6.90;99.90
6379;DHT22;3222;48.858;10.128;2023-11-19T01:42:24;7.00;99.90
6379;DHT22;3222;48.858;10.128;2023-11-19T01:44:59;7.10;99.90
6379;DHT22;3222;48.858;10.128;2023-11-19T01:47:27;7.10;99.90
6379;DHT22;3222;48.858;10.128;2023-11-19T01:49:54;7.10;99.90
6379;DHT22;3222;48.858;10.128;2023-11-19T01:52:22;7.10;99.90
6379;DHT22;3222;48.858;10.128;2023-11-19T01:54:48;7.10;99.90
6379;DHT22;3222;48.858;10.128;2023-11-19T01:57:14;7.10;99.90
6379;DHT22;3222;48.858;10.128;2023-11-19T01:59:40;7.20;99.90
6379;DHT22;3222;48.858;10.128;2023-11-19T02:02:07;7.20;99.90
6379;DHT22;3222;48.858;10.128;2023-11-19T02:04:33;7.20;99.90
6379;DHT22;3222;48.858;10.128;2023-11-19T02:07:00;7.20;99.90
6379;DHT22;3222;48.858;10.128;2023-11-19T02:09:26;7.20;99.90
6379;DHT22;3222;48.858;10.128;2023-11-19T02:11:53;7.10;99.90
6379;DHT22;3222;48.858;10.128;2023-11-19T02:14:24;7.20;99.90
6379;DHT22;3222;48.858;10.128;2023-11-19T02:16:52;7.30;99.90
6379;DHT22;3222;48.858;10.128;2023-11-19T02:19:20;7.30;99.90
6379;DHT22;3222;48.858;10.128;2023-11-19T02:21:46;7.40;99.90
6379;DHT22;3222;48.858;10.128;2023-11-19T02:24:14;7.40;99.90
6379;DHT22;3222;48.858;10.128;2023-11-19T02:29:26;7.30;99.90
6379;DHT22;3222;48.858;10.128;2023-11-19T02:31:51;7.30;99.90
6379;DHT22;3222;48.858;10.128;2023-11-19T02:34:17;7.40;99.90
6379;DHT22;3222;48.858;10.128;2023-11-19T02:36:43;7.40;99.90
6379;DHT22;3222;48.858;10.128;2023-11-19T02:39:09;7.40;99.90
6379;DHT22;3222;48.858;10.128;2023-11-19T02:41:37;7.50;99.90
6379;DHT22;3222;48.858;10.128;2023-11-19T02:44:06;7.50;99.90
6379;DHT22;3222;48.858;10.128;2023-11-19T02:46:32;7.50;99.90
6379;DHT22;3222;48.858;10.128;2023-11-19T02:48:58;7.50;99.90
6379;DHT22;3222;48.858;10.128;2023-11-19T02:51:24;7.50;99.90
6379;DHT22;3222;48.858;10.128;2023-11-19T02:53:49;7.50;99.90
6379;DHT22;3222;48.858;10.128;2023-11-19T02:56:15;7.60;99.90
6379;DHT22;3222;48.858;10.128;2023-11-19T02:58:45;7.60;99.90
6379;DHT22;3222;48.858;10.128;2023-11-19T03:01:12;7.50;99.90
6379;DHT22;3222;48.858;10.128;2023-11-19T03:03:50;7.60;99.90
6379;DHT22;3222;48.858;10.128;2023-11-19T03:06:20;7.60;99.90
6379;DHT22;3222;48.858;10.128;2023-11-19T03:08:48;7.70;99.90
6379;DHT22;3222;48.858;10.128;2023-11-19T03:11:15;7.60;99.90
6379;DHT22;3222;48.858;10.128;2023-11-19T03:13:41;7.60;99.90
6379;DHT22;3222;48.858;10.128;2023-11-19T03:16:07;7.60;99.90
6379;DHT22;3222;48.858;10.128;2023-11-19T03:18:33;7.60;99.90
6379;DHT22;3222;48.858;10.128;2023-11-19T03:20:58;7.60;99.90
6379;DHT22;3222;48.858;10.128;2023-11-19T03:23:25;7.60;99.90
6379;DHT22;3222;48.858;10.128;2023-11-19T03:25:54;7.60;99.90
6379;DHT22;3222;48.858;10.128;2023-11-19T03:28:21;7.70;99.90
6379;DHT22;3222;48.858;10.128;2023-11-19T03:30:46;7.70;99.90
6379;DHT22;3222;48.858;10.128;2023-11-19T03:33:12;7.70;99.90
6379;DHT22;3222;48.858;10.128;2023-11-19T03:35:38;7.70;99.90
6379;DHT22;3222;48.858;10.128;2023-11-19T03:38:04;7.70;99.90
6379;DHT22;3222;48.858;10.128;2023-11-19T03:40:29;7.60;99.90
6379;DHT22;3222;48.858;10.128;2023-11-19T03:42:58;7.70;99.90
6379;DHT22;3222;48.858;10.128;2023-11-19T03:45:24;7.80;99.90
6379;DHT22;3222;48.858;10.128;2023-11-19T03:47:50;7.80;99.90
6379;DHT22;3222;48.858;10.128;2023-11-19T03:50:16;7.80;99.90
6379;DHT22;3222;48.858;10.128;2023-11-19T03:52:43;7.80;99.90
6379;DHT22;3222;48.858;10.128;2023-11-19T03:55:09;7.80;99.90
6379;DHT22;3222;48.858;10.128;2023-11-19T03:57:35;7.80;99.90
6379;DHT22;3222;48.858;10.128;2023-11-19T04:00:01;7.80;99.90
6379;DHT22;3222;48.858;10.128;2023-11-19T04:02:38;7.80;99.90
6379;DHT22;3222;48.858;10.128;2023-11-19T04:05:04;7.80;99.90
6379;DHT22;3222;48.858;10.128;2023-11-19T04:07:30;7.80;99.90
6379;DHT22;3222;48.858;10.128;2023-11-19T04:09:57;7.80;99.90
6379;DHT22;3222;48.858;10.128;2023-11-19T04:12:23;7.80;99.90
6379;DHT22;3222;48.858;10.128;2023-11-19T04:14:49;7.80;99.90
6379;DHT22;3222;48.858;10.128;2023-11-19T04:17:15;7.90;99.90
6379;DHT22;3222;48.858;10.128;2023-11-19T04:19:41;7.90;99.90
6379;DHT22;3222;48.858;10.128;2023-11-19T04:22:10;7.90;99.90
6379;DHT22;3222;48.858;10.128;2023-11-19T04:24:36;8.00;99.90
6379;DHT22;3222;48.858;10.128;2023-11-19T04:27:04;8.00;99.90
6379;DHT22;3222;48.858;10.128;2023-11-19T04:29:31;8.00;99.90
6379;DHT22;3222;48.858;10.128;2023-11-19T04:31:57;8.00;99.90
6379;DHT22;3222;48.858;10.128;2023-11-19T04:34:24;8.00;99.90
6379;DHT22;3222;48.858;10.128;2023-11-19T04:36:49;8.00;99.90
6379;DHT22;3222;48.858;10.128;2023-11-19T04:39:15;8.10;99.90
6379;DHT22;3222;48.858;10.128;2023-11-19T04:41:51;8.00;99.90
6379;DHT22;3222;48.858;10.128;2023-11-19T04:44:20;8.10;99.90
6379;DHT22;3222;48.858;10.128;2023-11-19T04:46:46;8.10;99.90
6379;DHT22;3222;48.858;10.128;2023-11-19T04:49:13;8.10;99.90
6379;DHT22;3222;48.858;10.128;2023-11-19T04:51:44;8.10;99.90
6379;DHT22;3222;48.858;10.128;2023-11-19T04:54:11;8.10;99.90
6379;DHT22;3222;48.858;10.128;2023-11-19T04:56:37;8.10;99.90
6379;DHT22;3222;48.858;10.128;2023-11-19T04:59:03;8.20;99.90
6379;DHT22;3222;48.858;10.128;2023-11-19T05:01:31;8.20;99.90
6379;DHT22;3222;48.858;10.128;2023-11-19T05:03:57;8.20;99.90
6379;DHT22;3222;48.858;10.128;2023-11-19T05:06:29;8.20;99.90
6379;DHT22;3222;48.858;10.128;2023-11-19T05:08:56;8.20;99.90
6379;DHT22;3222;48.858;10.128;2023-11-19T05:11:22;8.20;99.90
6379;DHT22;3222;48.858;10.128;2023-11-19T05:13:47;8.10;99.90
6379;DHT22;3222;48.858;10.128;2023-11-19T05:16:13;8.20;99.90
6379;DHT22;3222;48.858;10.128;2023-11-19T05:18:40;8.20;99.90
6379;DHT22;3222;48.858;10.128;2023-11-19T05:21:06;8.30;99.90
6379;DHT22;3222;48.858;10.128;2023-11-19T05:23:33;8.30;99.90
6379;DHT22;3222;48.858;10.128;2023-11-19T05:26:03;8.30;99.90
6379;DHT22;3222;48.858;10.128;2023-11-19T05:28:28;8.30;99.90
6379;DHT22;3222;48.858;10.128;2023-11-19T05:30:54;8.40;99.90
6379;DHT22;3222;48.858;10.128;2023-11-19T05:33:21;8.30;99.90
6379;DHT22;3222;48.858;10.128;2023-11-19T05:35:46;8.30;99.90
6379;DHT22;3222;48.858;10.128;2023-11-19T05:38:12;8.30;99.90
6379;DHT22;3222;48.858;10.128;2023-11-19T05:40:38;8.30;99.90
6379;DHT22;3222;48.858;10.128;2023-11-19T05:43:05;8.40;99.90
6379;DHT22;3222;48.858;10.128;2023-11-19T05:45:32;8.40;99.90
6379;DHT22;3222;48.858;10.128;2023-11-19T05:47:57;8.50;99.90
6379;DHT22;3222;48.858;10.128;2023-11-19T05:50:24;8.50;99.90
6379;DHT22;3222;48.858;10.128;2023-11-19T05:52:50;8.40;99.90
6379;DHT22;3222;48.858;10.128;2023-11-19T05:55:18;8.50;99.90
6379;DHT22;3222;48.858;10.128;2023-11-19T05:57:44;8.40;99.90
6379;DHT22;3222;48.858;10.128;2023-11-19T06:00:10;8.40;99.90
6379;DHT22;3222;48.858;10.128;2023-11-19T06:02:38;8.50;99.90
6379;DHT22;3222;48.858;10.128;2023-11-19T06:05:05;8.60;99.90
6379;DHT22;3222;48.858;10.128;2023-11-19T06:07:33;8.50;99.90
6379;DHT22;3222;48.858;10.128;2023-11-19T06:09:58;8.50;99.90
6379;DHT22;3222;48.858;10.128;2023-11-19T06:12:24;8.60;99.90
6379;DHT22;3222;48.858;10.128;2023-11-19T06:14:50;8.60;99.90
6379;DHT22;3222;48.858;10.128;2023-11-19T06:17:15;8.60;99.90
6379;DHT22;3222;48.858;10.128;2023-11-19T06:19:41;8.60;99.90
6379;DHT22;3222;48.858;10.128;2023-11-19T06:22:07;8.70;99.90
6379;DHT22;3222;48.858;10.128;2023-11-19T06:24:32;8.70;99.90
6379;DHT22;3222;48.858;10.128;2023-11-19T06:26:58;8.70;99.90
6379;DHT22;3222;48.858;10.128;2023-11-19T06:29:24;8.60;99.90
6379;DHT22;3222;48.858;10.128;2023-11-19T06:31:50;8.70;99.90
6379;DHT22;3222;48.858;10.128;2023-11-19T06:34:16;8.70;99.90
6379;DHT22;3222;48.858;10.128;2023-11-19T06:36:42;8.70;99.90
6379;DHT22;3222;48.858;10.128;2023-11-19T06:39:09;8.70;99.90
6379;DHT22;3222;48.858;10.128;2023-11-19T06:41:36;8.70;99.90
6379;DHT22;3222;48.858;10.128;2023-11-19T06:44:05;8.60;99.90
6379;DHT22;3222;48.858;10.128;2023-11-19T06:46:31;8.70;99.90
6379;DHT22;3222;48.858;10.128;2023-11-19T06:48:57;8.70;99.90
6379;DHT22;3222;48.858;10.128;2023-11-19T06:51:23;8.70;99.90
6379;DHT22;3222;48.858;10.128;2023-11-19T06:53:50;8.60;99.90
6379;DHT22;3222;48.858;10.128;2023-11-19T06:56:23;8.70;99.90
6379;DHT22;3222;48.858;10.128;2023-11-19T06:58:50;8.70;99.90
6379;DHT22;3222;48.858;10.128;2023-11-19T07:01:16;8.70;99.90
6379;DHT22;3222;48.858;10.128;2023-11-19T07:03:46;8.70;99.90
6379;DHT22;3222;48.858;10.128;2023-11-19T07:06:12;8.70;99.90
6379;DHT22;3222;48.858;10.128;2023-11-19T07:08:39;8.80;99.90
6379;DHT22;3222;48.858;10.128;2023-11-19T07:11:06;8.80;99.90
6379;DHT22;3222;48.858;10.128;2023-11-19T07:13:32;8.90;99.90
6379;DHT22;3222;48.858;10.128;2023-11-19T07:15:57;8.90;99.90
6379;DHT22;3222;48.858;10.128;2023-11-19T07:18:24;8.90;99.90
6379;DHT22;3222;48.858;10.128;2023-11-19T07:20:50;8.90;99.90
6379;DHT22;3222;48.858;10.128;2023-11-19T07:23:16;8.90;99.90
6379;DHT22;3222;48.858;10.128;2023-11-19T07:25:42;8.90;99.90
6379;DHT22;3222;48.858;10.128;2023-11-19T07:28:08;8.90;99.90
6379;DHT22;3222;48.858;10.128;2023-11-19T07:30:35;8.90;99.90
6379;DHT22;3222;48.858;10.128;2023-11-19T07:33:01;9.00;99.90
6379;DHT22;3222;48.858;10.128;2023-11-19T07:35:29;9.00;99.90
6379;DHT22;3222;48.858;10.128;2023-11-19T07:37:56;9.00;99.90
6379;DHT22;3222;48.858;10.128;2023-11-19T07:40:24;9.00;99.90
6379;DHT22;3222;48.858;10.128;2023-11-19T07:42:50;9.00;99.90
6379;DHT22;3222;48.858;10.128;2023-11-19T07:45:16;9.10;99.90
6379;DHT22;3222;48.858;10.128;2023-11-19T07:47:43;9.10;99.90
6379;DHT22;3222;48.858;10.128;2023-11-19T07:50:12;9.10;99.90
6379;DHT22;3222;48.858;10.128;2023-11-19T07:52:40;9.10;99.90
6379;DHT22;3222;48.858;10.128;2023-11-19T07:55:05;9.10;99.90
6379;DHT22;3222;48.858;10.128;2023-11-19T07:57:31;9.00;99.90
6379;DHT22;3222;48.858;10.128;2023-11-19T07:59:57;9.10;99.90
6379;DHT22;3222;48.858;10.128;2023-11-19T08:02:23;9.10;99.90
6379;DHT22;3222;48.858;10.128;2023-11-19T08:04:52;9.10;99.90
6379;DHT22;3222;48.858;10.128;2023-11-19T08:07:23;9.10;99.90
6379;DHT22;3222;48.858;10.128;2023-11-19T08:09:48;9.20;99.90
6379;DHT22;3222;48.858;10.128;2023-11-19T08:12:14;9.20;99.90
6379;DHT22;3222;48.858;10.128;2023-11-19T08:14:41;9.20;99.90
6379;DHT22;3222;48.858;10.128;2023-11-19T08:17:07;9.10;99.90
6379;DHT22;3222;48.858;10.128;2023-11-19T08:19:32;9.20;99.90
6379;DHT22;3222;48.858;10.128;2023-11-19T08:21:58;9.10;99.90
6379;DHT22;3222;48.858;10.128;2023-11-19T08:24:24;9.20;99.90
6379;DHT22;3222;48.858;10.128;2023-11-19T08:26:49;9.20;99.90
6379;DHT22;3222;48.858;10.128;2023-11-19T08:29:15;9.20;99.90
6379;DHT22;3222;48.858;10.128;2023-11-19T08:31:42;9.30;99.90
6379;DHT22;3222;48.858;10.128;2023-11-19T08:34:07;9.30;99.90
6379;DHT22;3222;48.858;10.128;2023-11-19T08:36:34;9.30;99.90
6379;DHT22;3222;48.858;10.128;2023-11-19T08:39:00;9.30;99.90
6379;DHT22;3222;48.858;10.128;2023-11-19T08:41:26;9.30;99.90
6379;DHT22;3222;48.858;10.128;2023-11-19T08:43:52;9.40;99.90
6379;DHT22;3222;48.858;10.128;2023-11-19T08:46:18;9.40;99.90
6379;DHT22;3222;48.858;10.128;2023-11-19T08:48:44;9.30;99.90
6379;DHT22;3222;48.858;10.128;2023-11-19T08:51:10;9.40;99.90
6379;DHT22;3222;48.858;10.128;2023-11-19T08:53:35;9.40;99.90
6379;DHT22;3222;48.858;10.128;2023-11-19T08:56:01;9.40;99.90
6379;DHT22;3222;48.858;10.128;2023-11-19T08:58:28;9.40;99.90
6379;DHT22;3222;48.858;10.128;2023-11-19T09:00:54;9.40;99.90
6379;DHT22;3222;48.858;10.128;2023-11-19T09:03:20;9.50;99.90
6379;DHT22;3222;48.858;10.128;2023-11-19T09:05:46;9.50;99.90
6379;DHT22;3222;48.858;10.128;2023-11-19T09:08:12;9.50;99.90
6379;DHT22;3222;48.858;10.128;2023-11-19T09:10:38;9.50;99.90
6379;DHT22;3222;48.858;10.128;2023-11-19T09:13:03;9.60;99.90
6379;DHT22;3222;48.858;10.128;2023-11-19T09:15:29;9.60;99.90
6379;DHT22;3222;48.858;10.128;2023-11-19T09:17:55;9.60;99.90
6379;DHT22;3222;48.858;10.128;2023-11-19T09:20:21;9.70;99.90
6379;DHT22;3222;48.858;10.128;2023-11-19T09:22:47;9.70;99.90
6379;DHT22;3222;48.858;10.128;2023-11-19T09:25:13;9.70;99.90
6379;DHT22;3222;48.858;10.128;2023-11-19T09:27:45;9.70;99.90
6379;DHT22;3222;48.858;10.128;2023-11-19T09:30:11;9.70;99.90
6379;DHT22;3222;48.858;10.128;2023-11-19T09:32:37;9.80;99.90
6379;DHT22;3222;48.858;10.128;2023-11-19T09:35:03;9.80;99.90
6379;DHT22;3222;48.858;10.128;2023-11-19T09:37:29;9.80;99.90
6379;DHT22;3222;48.858;10.128;2023-11-19T09:39:55;9.80;99.90
6379;DHT22;3222;48.858;10.128;2023-11-19T09:42:20;9.80;99.90
6379;DHT22;3222;48.858;10.128;2023-11-19T09:44:47;9.90;99.90
6379;DHT22;3222;48.858;10.128;2023-11-19T09:47:14;9.90;99.90
6379;DHT22;3222;48.858;10.128;2023-11-19T09:49:41;9.90;99.90
6379;DHT22;3222;48.858;10.128;2023-11-19T09:52:07;9.90;99.90
6379;DHT22;3222;48.858;10.128;2023-11-19T09:54:33;9.90;99.90
6379;DHT22;3222;48.858;10.128;2023-11-19T09:56:59;9.90;99.90
6379;DHT22;3222;48.858;10.128;2023-11-19T09:59:30;10.00;99.90
6379;DHT22;3222;48.858;10.128;2023-11-19T10:01:56;10.00;99.90
6379;DHT22;3222;48.858;10.128;2023-11-19T10:04:23;10.00;99.90
6379;DHT22;3222;48.858;10.128;2023-11-19T10:06:50;10.00;99.90
6379;DHT22;3222;48.858;10.128;2023-11-19T10:09:16;10.10;99.90
6379;DHT22;3222;48.858;10.128;2023-11-19T10:11:42;10.10;99.90
6379;DHT22;3222;48.858;10.128;2023-11-19T10:14:09;10.10;99.90
6379;DHT22;3222;48.858;10.128;2023-11-19T10:16:35;10.20;99.90
6379;DHT22;3222;48.858;10.128;2023-11-19T10:19:01;10.10;99.90
6379;DHT22;3222;48.858;10.128;2023-11-19T10:21:27;10.20;99.90
6379;DHT22;3222;48.858;10.128;2023-11-19T10:23:54;10.10;99.90
6379;DHT22;3222;48.858;10.128;2023-11-19T10:26:21;10.20;99.90
6379;DHT22;3222;48.858;10.128;2023-11-19T10:28:48;10.20;99.90
6379;DHT22;3222;48.858;10.128;2023-11-19T10:31:14;10.30;99.90
6379;DHT22;3222;48.858;10.128;2023-11-19T10:33:40;10.30;99.90
6379;DHT22;3222;48.858;10.128;2023-11-19T10:36:07;10.20;99.90
6379;DHT22;3222;48.858;10.128;2023-11-19T10:38:33;10.20;99.90
6379;DHT22;3222;48.858;10.128;2023-11-19T10:40:59;10.30;99.90
6379;DHT22;3222;48.858;10.128;2023-11-19T10:43:25;10.40;99.90
6379;DHT22;3222;48.858;10.128;2023-11-19T10:45:51;10.40;99.90
6379;DHT22;3222;48.858;10.128;2023-11-19T10:48:17;10.40;99.90
6379;DHT22;3222;48.858;10.128;2023-11-19T10:50:44;10.40;99.90
6379;DHT22;3222;48.858;10.128;2023-11-19T10:53:12;10.40;99.90
6379;DHT22;3222;48.858;10.128;2023-11-19T10:55:47;10.40;99.90
6379;DHT22;3222;48.858;10.128;2023-11-19T10:58:15;10.50;99.90
6379;DHT22;3222;48.858;10.128;2023-11-19T11:00:54;10.50;99.90
6379;DHT22;3222;48.858;10.128;2023-11-19T11:03:21;10.50;99.90
6379;DHT22;3222;48.858;10.128;2023-11-19T11:05:51;10.60;99.90
6379;DHT22;3222;48.858;10.128;2023-11-19T11:08:18;10.60;99.90
6379;DHT22;3222;48.858;10.128;2023-11-19T11:10:54;10.50;99.90
6379;DHT22;3222;48.858;10.128;2023-11-19T11:13:23;10.50;99.90
6379;DHT22;3222;48.858;10.128;2023-11-19T11:15:50;10.60;99.90
6379;DHT22;3222;48.858;10.128;2023-11-19T11:18:16;10.70;99.90
6379;DHT22;3222;48.858;10.128;2023-11-19T11:20:45;10.70;99.90
6379;DHT22;3222;48.858;10.128;2023-11-19T11:31:58;10.80;99.90
6379;DHT22;3222;48.858;10.128;2023-11-19T11:34:47;10.90;99.90
6379;DHT22;3222;48.858;10.128;2023-11-19T11:37:30;10.90;99.90
6379;DHT22;3222;48.858;10.128;2023-11-19T11:39:58;10.90;99.90
6379;DHT22;3222;48.858;10.128;2023-11-19T11:45:11;11.10;99.90
6379;DHT22;3222;48.858;10.128;2023-11-19T11:50:15;11.20;99.90
6379;DHT22;3222;48.858;10.128;2023-11-19T11:55:52;11.00;99.90
6379;DHT22;3222;48.858;10.128;2023-11-19T11:58:21;11.20;99.90
6379;DHT22;3222;48.858;10.128;2023-11-19T12:00:48;11.20;99.90
6379;DHT22;3222;48.858;10.128;2023-11-19T12:03:14;11.20;99.90
6379;DHT22;3222;48.858;10.128;2023-11-19T12:05:44;11.20;99.90
6379;DHT22;3222;48.858;10.128;2023-11-19T12:08:12;11.20;99.90
6379;DHT22;3222;48.858;10.128;2023-11-19T12:11:06;11.30;99.90
6379;DHT22;3222;48.858;10.128;2023-11-19T12:13:53;11.20;99.90
6379;DHT22;3222;48.858;10.128;2023-11-19T12:16:21;11.30;99.90
6379;DHT22;3222;48.858;10.128;2023-11-19T12:18:47;11.30;99.90
6379;DHT22;3222;48.858;10.128;2023-11-19T12:21:28;11.20;99.90
6379;DHT22;3222;48.858;10.128;2023-11-19T12:23:55;11.20;99.90
6379;DHT22;3222;48.858;10.128;2023-11-19T12:26:35;11.20;99.90
6379;DHT22;3222;48.858;10.128;2023-11-19T12:29:01;11.20;99.90
6379;DHT22;3222;48.858;10.128;2023-11-19T12:31:29;11.10;99.90
6379;DHT22;3222;48.858;10.128;2023-11-19T12:33:56;11.20;99.90
6379;DHT22;3222;48.858;10.128;2023-11-19T12:36:22;11.10;99.90
6379;DHT22;3222;48.858;10.128;2023-11-19T12:38:48;11.10;99.90
6379;DHT22;3222;48.858;10.128;2023-11-19T12:41:14;11.10;99.90
6379;DHT22;3222;48.858;10.128;2023-11-19T12:43:43;11.20;99.90
6379;DHT22;3222;48.858;10.128;2023-11-19T12:46:22;11.10;99.90
6379;DHT22;3222;48.858;10.128;2023-11-19T12:48:48;11.10;99.90
6379;DHT22;3222;48.858;10.128;2023-11-19T12:51:14;11.20;99.90
6379;DHT22;3222;48.858;10.128;2023-11-19T12:53:52;11.10;99.90
6379;DHT22;3222;48.858;10.128;2023-11-19T12:56:21;11.20;99.90
6379;DHT22;3222;48.858;10.128;2023-11-19T12:58:47;11.20;99.90
6379;DHT22;3222;48.858;10.128;2023-11-19T13:01:20;11.20;99.90
6379;DHT22;3222;48.858;10.128;2023-11-19T13:03:47;11.30;99.90
6379;DHT22;3222;48.858;10.128;2023-11-19T13:06:14;11.30;99.90
6379;DHT22;3222;48.858;10.128;2023-11-19T13:08:46;11.20;99.90
6379;DHT22;3222;48.858;10.128;2023-11-19T13:11:14;11.20;99.90
6379;DHT22;3222;48.858;10.128;2023-11-19T13:14:00;11.20;99.90
6379;DHT22;3222;48.858;10.128;2023-11-19T13:16:26;11.20;99.90
6379;DHT22;3222;48.858;10.128;2023-11-19T13:18:52;11.20;99.90
6379;DHT22;3222;48.858;10.128;2023-11-19T13:21:18;11.20;99.90
6379;DHT22;3222;48.858;10.128;2023-11-19T13:23:44;11.30;99.90
6379;DHT22;3222;48.858;10.128;2023-11-19T13:26:10;11.40;99.90
6379;DHT22;3222;48.858;10.128;2023-11-19T13:28:37;11.40;99.90
6379;DHT22;3222;48.858;10.128;2023-11-19T13:31:03;11.20;99.90
6379;DHT22;3222;48.858;10.128;2023-11-19T13:33:29;11.20;99.90
6379;DHT22;3222;48.858;10.128;2023-11-19T13:35:55;11.30;99.90
6379;DHT22;3222;48.858;10.128;2023-11-19T13:38:21;11.30;99.90
6379;DHT22;3222;48.858;10.128;2023-11-19T13:40:48;11.30;99.90
6379;DHT22;3222;48.858;10.128;2023-11-19T13:43:14;11.40;99.90
6379;DHT22;3222;48.858;10.128;2023-11-19T13:45:40;11.40;99.90
6379;DHT22;3222;48.858;10.128;2023-11-19T13:48:06;11.40;99.90
6379;DHT22;3222;48.858;10.128;2023-11-19T13:50:31;11.40;99.90
6379;DHT22;3222;48.858;10.128;2023-11-19T13:52:59;11.40;99.90
6379;DHT22;3222;48.858;10.128;2023-11-19T13:55:25;11.40;99.90
6379;DHT22;3222;48.858;10.128;2023-11-19T13:57:51;11.40;99.90
6379;DHT22;3222;48.858;10.128;2023-11-19T14:00:17;11.40;99.90
6379;DHT22;3222;48.858;10.128;2023-11-19T14:02:46;11.30;99.90
6379;DHT22;3222;48.858;10.128;2023-11-19T14:05:13;11.30;99.90
6379;DHT22;3222;48.858;10.128;2023-11-19T14:07:40;11.30;99.90
6379;DHT22;3222;48.858;10.128;2023-11-19T14:10:07;11.20;99.90
6379;DHT22;3222;48.858;10.128;2023-11-19T14:12:35;11.40;99.90
6379;DHT22;3222;48.858;10.128;2023-11-19T14:15:02;11.30;99.90
6379;DHT22;3222;48.858;10.128;2023-11-19T14:17:28;11.50;99.90
6379;DHT22;3222;48.858;10.128;2023-11-19T14:19:53;11.40;99.90
6379;DHT22;3222;48.858;10.128;2023-11-19T14:22:19;11.40;99.90
6379;DHT22;3222;48.858;10.128;2023-11-19T14:24:45;11.40;99.90
6379;DHT22;3222;48.858;10.128;2023-11-19T14:27:11;11.40;99.90
6379;DHT22;3222;48.858;10.128;2023-11-19T14:29:37;11.40;99.90
6379;DHT22;3222;48.858;10.128;2023-11-19T14:32:03;11.50;99.90
6379;DHT22;3222;48.858;10.128;2023-11-19T14:34:30;11.40;99.90
6379;DHT22;3222;48.858;10.128;2023-11-19T14:36:56;11.40;99.90
6379;DHT22;3222;48.858;10.128;2023-11-19T14:39:22;11.40;99.90
6379;DHT22;3222;48.858;10.128;2023-11-19T14:41:48;11.40;99.90
6379;DHT22;3222;48.858;10.128;2023-11-19T14:44:15;11.50;99.90
6379;DHT22;3222;48.858;10.128;2023-11-19T14:46:41;11.40;99.90
6379;DHT22;3222;48.858;10.128;2023-11-19T14:49:06;11.40;99.90
6379;DHT22;3222;48.858;10.128;2023-11-19T14:51:38;11.40;99.90
6379;DHT22;3222;48.858;10.128;2023-11-19T14:54:04;11.20;99.90
6379;DHT22;3222;48.858;10.128;2023-11-19T14:56:31;11.20;99.90
6379;DHT22;3222;48.858;10.128;2023-11-19T14:58:57;11.20;99.90
6379;DHT22;3222;48.858;10.128;2023-11-19T15:01:24;11.40;99.90
6379;DHT22;3222;48.858;10.128;2023-11-19T15:03:50;11.30;99.90
6379;DHT22;3222;48.858;10.128;2023-11-19T15:06:23;11.20;99.90
6379;DHT22;3222;48.858;10.128;2023-11-19T15:08:49;11.30;99.90
6379;DHT22;3222;48.858;10.128;2023-11-19T15:11:14;11.40;99.90
6379;DHT22;3222;48.858;10.128;2023-11-19T15:13:40;11.30;99.90
6379;DHT22;3222;48.858;10.128;2023-11-19T15:16:07;11.40;99.90
6379;DHT22;3222;48.858;10.128;2023-11-19T15:18:37;11.30;99.90
6379;DHT22;3222;48.858;10.128;2023-11-19T15:21:03;11.20;99.90
6379;DHT22;3222;48.858;10.128;2023-11-19T15:23:29;11.20;99.90
6379;DHT22;3222;48.858;10.128;2023-11-19T15:25:55;11.20;99.90
6379;DHT22;3222;48.858;10.128;2023-11-19T15:28:21;11.20;99.90
6379;DHT22;3222;48.858;10.128;2023-11-19T15:30:47;11.20;99.90
6379;DHT22;3222;48.858;10.128;2023-11-19T15:33:13;11.20;99.90
6379;DHT22;3222;48.858;10.128;2023-11-19T15:35:38;11.10;99.90
6379;DHT22;3222;48.858;10.128;2023-11-19T15:38:06;11.00;99.90
6379;DHT22;3222;48.858;10.128;2023-11-19T15:40:35;11.10;99.90
6379;DHT22;3222;48.858;10.128;2023-11-19T15:43:03;11.00;99.90
6379;DHT22;3222;48.858;10.128;2023-11-19T15:45:29;11.00;99.90
6379;DHT22;3222;48.858;10.128;2023-11-19T15:47:55;11.00;99.90
6379;DHT22;3222;48.858;10.128;2023-11-19T15:50:21;11.00;99.90
6379;DHT22;3222;48.858;10.128;2023-11-19T15:52:46;10.90;99.90
6379;DHT22;3222;48.858;10.128;2023-11-19T15:55:13;10.90;99.90
6379;DHT22;3222;48.858;10.128;2023-11-19T15:57:39;10.80;99.90
6379;DHT22;3222;48.858;10.128;2023-11-19T16:00:05;10.80;99.90
6379;DHT22;3222;48.858;10.128;2023-11-19T16:02:31;10.80;99.90
6379;DHT22;3222;48.858;10.128;2023-11-19T16:04:57;10.90;99.90
6379;DHT22;3222;48.858;10.128;2023-11-19T16:07:22;10.90;99.90
6379;DHT22;3222;48.858;10.128;2023-11-19T16:09:48;10.90;99.90
6379;DHT22;3222;48.858;10.128;2023-11-19T16:12:14;10.90;99.90
6379;DHT22;3222;48.858;10.128;2023-11-19T16:14:40;10.80;99.90